createdAt,value
2019-03-11T00:05:15.894Z,100122
2019-03-11T00:10:38.811Z,100119
2019-03-11T00:16:01.552Z,100128
2019-03-11T00:21:24.272Z,100119
2019-03-11T00:26:46.984Z,100117
2019-03-11T00:32:10.017Z,100117
2019-03-11T00:37:32.834Z,100134
2019-03-11T00:42:56.763Z,100115
2019-03-11T00:48:19.486Z,100130
2019-03-11T00:53:42.230Z,100118
2019-03-11T00:59:05.804Z,100125
2019-03-11T01:04:29.403Z,100120
2019-03-11T01:09:53.041Z,100118
2019-03-11T01:15:15.896Z,100111
2019-03-11T01:20:38.703Z,100112
2019-03-11T01:26:01.502Z,100108
2019-03-11T01:31:24.372Z,100113
2019-03-11T01:36:47.213Z,100109
2019-03-11T01:42:19.005Z,100120
2019-03-11T01:47:41.902Z,100107
2019-03-11T01:53:17.361Z,100131
2019-03-11T01:58:49.170Z,100108
2019-03-11T02:04:12.222Z,100113
2019-03-11T02:09:34.998Z,100136
2019-03-11T02:15:07.944Z,100146
2019-03-11T02:20:39.782Z,100129
2019-03-11T02:26:11.785Z,100124
2019-03-11T02:32:12.245Z,100101
2019-03-11T02:37:44.129Z,100099
2019-03-11T02:43:06.885Z,100096
2019-03-11T02:48:31.513Z,100085
2019-03-11T02:54:06.587Z,100085
2019-03-11T02:59:40.149Z,100083
2019-03-11T03:05:12.617Z,100084
2019-03-11T03:10:35.802Z,100078
2019-03-11T03:15:58.718Z,100069
2019-03-11T03:21:32.376Z,100076
2019-03-11T03:27:05.033Z,100073
2019-03-11T03:32:37.581Z,100068
2019-03-11T03:38:00.452Z,100071
2019-03-11T03:43:37.282Z,100068
2019-03-11T03:49:10.016Z,100067
2019-03-11T03:54:33.234Z,100058
2019-03-11T03:59:56.952Z,100063
2019-03-11T04:05:31.724Z,100064
2019-03-11T04:11:06.506Z,100059
2019-03-11T04:17:32.533Z,100053
2019-03-11T04:23:06.876Z,100060
2019-03-11T04:29:09.008Z,100065
2019-03-11T04:34:41.406Z,100078
2019-03-11T04:40:15.351Z,100081
2019-03-11T04:45:49.414Z,100087
2019-03-11T04:51:12.855Z,100092
2019-03-11T04:56:35.678Z,100101
2019-03-11T05:02:07.451Z,100099
2019-03-11T05:08:09.377Z,100104
2019-03-11T05:13:43.600Z,100114
2019-03-11T05:19:06.592Z,100103
2019-03-11T05:24:29.565Z,100108
2019-03-11T05:30:03.070Z,100101
2019-03-11T05:35:35.080Z,100114
2019-03-11T05:41:08.770Z,100116
2019-03-11T05:46:30.537Z,100125
2019-03-11T05:52:04.380Z,100126
2019-03-11T05:57:36.670Z,100126
2019-03-11T06:02:59.599Z,100126
2019-03-11T06:08:23.192Z,100141
2019-03-11T06:13:55.168Z,100141
2019-03-11T06:19:18.058Z,100144
2019-03-11T06:24:40.975Z,100140
2019-03-11T06:30:03.888Z,100144
2019-03-11T06:35:26.842Z,100157
2019-03-11T06:40:49.624Z,100152
2019-03-11T06:46:12.620Z,100153
2019-03-11T06:51:35.728Z,100143
2019-03-11T06:56:58.409Z,100160
2019-03-11T07:02:21.235Z,100166
2019-03-11T07:07:44.207Z,100165
2019-03-11T07:13:06.911Z,100173
2019-03-11T07:18:29.763Z,100181
2019-03-11T07:23:52.547Z,100177
2019-03-11T07:29:16.272Z,100174
2019-03-11T07:34:39.304Z,100178
2019-03-11T07:40:02.778Z,100186
2019-03-11T07:45:25.861Z,100188
2019-03-11T07:51:24.151Z,100185
2019-03-11T07:56:47.064Z,100199
2019-03-11T08:02:10.736Z,100205
2019-03-11T08:07:33.741Z,100210
2019-03-11T08:12:56.832Z,100229
2019-03-11T08:18:34.767Z,100229
2019-03-11T08:24:02.818Z,100243
2019-03-11T08:29:25.979Z,100244
2019-03-11T08:34:48.886Z,100234
2019-03-11T08:40:12.078Z,100234
2019-03-11T08:45:37.742Z,100241
2019-03-11T08:51:01.853Z,100253
2019-03-11T08:56:25.864Z,100270
2019-03-11T09:01:57.630Z,100267
2019-03-11T09:07:29.983Z,100284
2019-03-11T09:13:03.750Z,100282
2019-03-11T09:18:36.935Z,100292
2019-03-11T09:24:18.603Z,100298
2019-03-11T09:29:32.759Z,100314
2019-03-11T09:34:56.745Z,100315
2019-03-11T09:40:19.736Z,100320
2019-03-11T09:45:43.143Z,100323
2019-03-11T09:51:06.173Z,100321
2019-03-11T09:56:43.090Z,100321
2019-03-11T10:02:02.183Z,100335
2019-03-11T10:07:24.950Z,100332
2019-03-11T10:12:48.232Z,100330
2019-03-11T10:18:11.345Z,100337
2019-03-11T10:29:58.768Z,100341
2019-03-11T10:35:35.803Z,100330
2019-03-11T10:40:58.857Z,100327
2019-03-11T10:46:21.663Z,100327
2019-03-11T10:51:44.482Z,100328
2019-03-11T10:57:07.333Z,100325
2019-03-11T11:02:30.120Z,100329
2019-03-11T11:07:52.814Z,100340
2019-03-11T11:13:15.604Z,100331
2019-03-11T11:18:38.211Z,100350
2019-03-11T11:24:03.138Z,100344
2019-03-11T11:29:26.027Z,100366
2019-03-11T11:34:49.541Z,100369
2019-03-11T11:40:12.359Z,100376
2019-03-11T11:45:35.111Z,100369
2019-03-11T11:50:58.524Z,100364
2019-03-11T11:56:21.895Z,100354
2019-03-11T12:01:44.688Z,100355
2019-03-11T12:07:07.408Z,100362
2019-03-11T12:12:30.008Z,100358
2019-03-11T12:17:52.674Z,100360
2019-03-11T12:23:15.339Z,100372
2019-03-11T12:28:38.000Z,100386
2019-03-11T12:34:00.893Z,100391
2019-03-11T12:39:23.832Z,100393
2019-03-11T12:44:46.559Z,100391
2019-03-11T12:50:09.283Z,100393
2019-03-11T12:55:32.921Z,100383
2019-03-11T13:00:55.593Z,100401
2019-03-11T13:06:18.220Z,100392
2019-03-11T13:11:41.022Z,100384
2019-03-11T13:17:03.734Z,100388
2019-03-11T13:22:26.679Z,100393
2019-03-11T13:27:49.254Z,100396
2019-03-11T13:33:11.928Z,100403
2019-03-11T13:38:35.226Z,100411
2019-03-11T13:43:58.137Z,100409
2019-03-11T13:49:20.979Z,100410
2019-03-11T13:54:43.643Z,100379
2019-03-11T14:00:06.398Z,100411
2019-03-11T14:05:29.272Z,100416
2019-03-11T14:10:51.899Z,100424
2019-03-11T14:16:14.580Z,100425
2019-03-11T14:21:37.308Z,100449
2019-03-11T14:26:59.939Z,100460
2019-03-11T14:32:23.114Z,100463
2019-03-11T14:37:45.497Z,100470
2019-03-11T14:43:08.312Z,100450
2019-03-11T14:48:31.247Z,100443
2019-03-11T14:53:53.936Z,100445
2019-03-11T14:59:16.579Z,100447
2019-03-11T15:04:39.267Z,100451
2019-03-11T15:10:02.222Z,100446
2019-03-11T15:15:28.210Z,100434
2019-03-11T15:20:50.979Z,100463
2019-03-11T15:26:24.620Z,100458
2019-03-11T15:31:38.605Z,100492
2019-03-11T15:37:10.288Z,100473
2019-03-11T15:42:33.564Z,100483
2019-03-11T15:47:56.161Z,100472
2019-03-11T15:53:18.951Z,100482
2019-03-11T15:58:42.039Z,100490
2019-03-11T16:04:04.857Z,100484
2019-03-11T16:09:27.748Z,100484
2019-03-11T16:14:50.450Z,100510
2019-03-11T16:20:13.515Z,100510
2019-03-11T16:25:45.783Z,100544
2019-03-11T16:31:08.486Z,100536
2019-03-11T16:36:59.720Z,100561
2019-03-11T16:42:22.787Z,100564
2019-03-11T16:47:45.697Z,100595
2019-03-11T16:53:08.604Z,100592
2019-03-11T16:58:31.457Z,100636
2019-03-11T17:03:54.246Z,100656
2019-03-11T17:09:16.909Z,100666
2019-03-11T17:14:39.625Z,100681
2019-03-11T17:20:11.624Z,100688
2019-03-11T17:25:44.220Z,100731
2019-03-11T17:31:07.116Z,100746
2019-03-11T17:36:29.995Z,100767
2019-03-11T17:42:02.829Z,100788
2019-03-11T17:47:35.609Z,100813
2019-03-11T17:53:19.260Z,100849
2019-03-11T17:58:39.854Z,100870
2019-03-11T18:04:03.259Z,100882
2019-03-11T18:09:26.119Z,100895
2019-03-11T18:14:48.851Z,100912
2019-03-11T18:20:13.309Z,100934
2019-03-11T18:25:36.137Z,100957
2019-03-11T18:30:58.901Z,100959
2019-03-11T18:36:21.709Z,100990
2019-03-11T18:41:44.611Z,100996
2019-03-11T18:47:10.693Z,101016
2019-03-11T18:52:33.508Z,101036
2019-03-11T18:57:56.184Z,101048
2019-03-11T19:03:20.140Z,101056
2019-03-11T19:08:42.794Z,101071
2019-03-11T19:14:06.220Z,101076
2019-03-11T19:19:28.880Z,101095
2019-03-11T19:24:52.670Z,101093
2019-03-11T19:30:15.663Z,101109
2019-03-11T19:35:39.491Z,101116
2019-03-11T19:41:02.147Z,101122
2019-03-11T19:46:25.616Z,101150
2019-03-11T19:51:48.338Z,101155
2019-03-11T19:57:11.081Z,101172
2019-03-11T20:02:33.892Z,101185
2019-03-11T20:07:56.753Z,101187
2019-03-11T20:13:19.738Z,101197
2019-03-11T20:18:42.551Z,101200
2019-03-11T20:24:06.457Z,101205
2019-03-11T20:29:28.472Z,101214
2019-03-11T20:34:52.411Z,101217
2019-03-11T20:40:16.388Z,101226
2019-03-11T20:45:38.970Z,101231
2019-03-11T20:51:01.638Z,101243
2019-03-11T20:56:33.965Z,101246
2019-03-11T21:01:56.738Z,101242
2019-03-11T21:07:19.517Z,101247
2019-03-11T21:12:42.436Z,101251
2019-03-11T21:18:05.133Z,101256
2019-03-11T21:23:28.043Z,101253
2019-03-11T21:29:02.101Z,101256
2019-03-11T21:34:31.933Z,101263
2019-03-11T21:39:54.581Z,101267
2019-03-11T21:45:17.487Z,101273
2019-03-11T21:50:41.339Z,101276
2019-03-11T21:56:04.038Z,101290
2019-03-11T22:01:26.749Z,101291
2019-03-11T22:06:49.513Z,101302
2019-03-11T22:12:12.515Z,101304
2019-03-11T22:17:35.622Z,101311
2019-03-11T22:22:58.826Z,101317
2019-03-11T22:28:21.519Z,101315
2019-03-11T22:33:44.142Z,101325
2019-03-11T22:39:07.890Z,101334
2019-03-11T22:44:30.595Z,101346
2019-03-11T22:49:53.230Z,101340
2019-03-11T22:55:16.049Z,101344
2019-03-11T23:00:38.896Z,101344
2019-03-11T23:06:01.580Z,101346
2019-03-11T23:11:24.231Z,101350
2019-03-11T23:16:47.673Z,101356
2019-03-11T23:22:10.642Z,101355
2019-03-11T23:27:35.149Z,101354
2019-03-11T23:32:56.140Z,101355
2019-03-11T23:38:18.859Z,101354
2019-03-11T23:43:41.885Z,101363
2019-03-11T23:49:05.305Z,101366
2019-03-11T23:54:28.786Z,101369
2019-03-11T23:59:51.577Z,101374
